createdAt,value
2018-03-01T00:00:06.352Z,53.90
2018-03-01T00:01:06.439Z,54.00
2018-03-01T00:02:06.286Z,54.10
2018-03-01T00:03:06.217Z,54.00
2018-03-01T00:04:08.038Z,54.10
2018-03-01T00:05:05.744Z,54.10
2018-03-01T00:06:06.347Z,54.20
2018-03-01T00:07:05.950Z,54.20
2018-03-01T00:08:06.263Z,54.20
2018-03-01T00:09:08.673Z,54.20
2018-03-01T00:10:06.201Z,54.20
2018-03-01T00:11:11.289Z,54.20
2018-03-01T00:12:05.925Z,54.20
2018-03-01T00:13:11.505Z,54.30
2018-03-01T00:14:09.663Z,54.30
2018-03-01T00:15:06.151Z,54.30
2018-03-01T00:16:05.942Z,54.30
2018-03-01T00:17:09.604Z,54.30
2018-03-01T00:18:06.370Z,54.30
2018-03-01T00:19:05.840Z,54.30
2018-03-01T00:20:05.953Z,54.30
2018-03-01T00:21:05.980Z,54.30
2018-03-01T00:22:11.414Z,54.30
2018-03-01T00:23:08.287Z,54.30
2018-03-01T00:24:08.742Z,54.30
2018-03-01T00:25:06.120Z,54.20
2018-03-01T00:26:08.344Z,54.30
2018-03-01T00:27:06.434Z,54.30
2018-03-01T00:28:06.199Z,54.40
2018-03-01T00:29:09.037Z,54.30
2018-03-01T00:30:10.678Z,54.30
2018-03-01T00:31:06.416Z,54.30
2018-03-01T00:32:10.797Z,54.40
2018-03-01T00:33:06.402Z,54.40
2018-03-01T00:34:05.917Z,54.40
2018-03-01T00:35:06.666Z,54.40
2018-03-01T00:36:09.128Z,54.50
2018-03-01T00:37:06.742Z,54.50
2018-03-01T00:38:11.013Z,54.60
2018-03-01T00:39:06.283Z,54.60
2018-03-01T00:40:10.658Z,54.60
2018-03-01T00:41:06.298Z,54.60
2018-03-01T00:42:09.793Z,54.70
2018-03-01T00:43:06.245Z,54.70
2018-03-01T00:44:06.313Z,54.70
2018-03-01T00:45:06.464Z,54.80
2018-03-01T00:46:06.384Z,54.80
2018-03-01T00:47:05.838Z,54.80
2018-03-01T00:48:06.210Z,54.80
2018-03-01T00:49:06.068Z,54.80
2018-03-01T00:50:06.650Z,54.90
2018-03-01T00:51:06.547Z,54.90
2018-03-01T00:52:06.068Z,55.00
2018-03-01T00:53:06.046Z,54.90
2018-03-01T00:54:08.834Z,55.10
2018-03-01T00:55:06.210Z,55.10
2018-03-01T00:56:06.496Z,55.10
2018-03-01T00:57:15.791Z,55.10
2018-03-01T00:58:06.482Z,55.10
2018-03-01T00:59:06.811Z,55.20
2018-03-01T01:00:06.210Z,55.10
2018-03-01T01:01:06.404Z,55.20
2018-03-01T01:02:09.553Z,55.30
2018-03-01T01:03:06.064Z,55.30
2018-03-01T01:04:06.132Z,55.30
2018-03-01T01:05:06.230Z,55.30
2018-03-01T01:06:06.560Z,55.30
2018-03-01T01:07:06.488Z,55.40
2018-03-01T01:08:05.899Z,55.50
2018-03-01T01:09:06.589Z,55.50
2018-03-01T01:10:06.093Z,55.50
2018-03-01T01:11:06.294Z,55.60
2018-03-01T01:12:06.153Z,55.70
2018-03-01T01:13:13.470Z,55.70
2018-03-01T01:14:11.034Z,55.70
2018-03-01T01:15:05.792Z,55.70
2018-03-01T01:16:08.823Z,55.60
2018-03-01T01:17:08.889Z,55.60
2018-03-01T01:18:06.278Z,55.60
2018-03-01T01:19:06.238Z,55.60
2018-03-01T01:20:06.079Z,55.70
2018-03-01T01:21:06.281Z,55.60
2018-03-01T01:22:05.793Z,55.60
2018-03-01T01:23:06.430Z,55.70
2018-03-01T01:24:06.701Z,55.70
2018-03-01T01:25:06.212Z,55.70
2018-03-01T01:26:06.355Z,55.80
2018-03-01T01:27:09.411Z,55.90
2018-03-01T01:28:08.882Z,55.90
2018-03-01T01:29:11.364Z,55.90
2018-03-01T01:30:05.911Z,55.90
2018-03-01T01:31:06.204Z,55.80
2018-03-01T01:32:09.007Z,56.10
2018-03-01T01:33:05.851Z,56.10
2018-03-01T01:34:11.241Z,56.10
2018-03-01T01:35:09.332Z,56.10
2018-03-01T01:36:06.103Z,56.20
2018-03-01T01:37:06.640Z,56.20
2018-03-01T01:38:11.411Z,56.20
2018-03-01T01:39:10.764Z,56.20
2018-03-01T01:40:06.321Z,56.20
2018-03-01T01:41:06.239Z,56.10
2018-03-01T01:42:06.514Z,56.10
2018-03-01T01:43:06.061Z,56.10
2018-03-01T01:44:06.557Z,56.20
2018-03-01T01:45:06.426Z,56.30
2018-03-01T01:46:06.518Z,56.30
2018-03-01T01:47:09.232Z,56.30
2018-03-01T01:48:05.931Z,56.30
2018-03-01T01:49:06.596Z,56.30
2018-03-01T01:50:05.967Z,56.40
2018-03-01T01:51:10.741Z,56.40
2018-03-01T01:52:06.237Z,56.30
2018-03-01T01:53:09.094Z,56.40
2018-03-01T01:54:05.834Z,56.30
2018-03-01T01:55:06.053Z,56.50
2018-03-01T01:56:08.035Z,56.70
2018-03-01T01:57:10.690Z,56.80
2018-03-01T01:58:06.120Z,56.80
2018-03-01T01:59:06.363Z,56.70
2018-03-01T02:00:08.275Z,57.00
2018-03-01T02:01:06.118Z,56.90
2018-03-01T02:02:08.712Z,56.90
2018-03-01T02:03:06.269Z,56.90
2018-03-01T02:04:06.671Z,57.00
2018-03-01T02:05:09.218Z,57.00
2018-03-01T02:06:06.425Z,57.00
2018-03-01T02:07:05.861Z,57.10
2018-03-01T02:08:06.061Z,57.10
2018-03-01T02:09:06.506Z,57.00
2018-03-01T02:10:06.223Z,57.10
2018-03-01T02:11:06.091Z,57.00
2018-03-01T02:12:06.301Z,57.10
2018-03-01T02:13:06.061Z,57.20
2018-03-01T02:14:05.959Z,57.30
2018-03-01T02:15:06.055Z,57.30
2018-03-01T02:16:08.944Z,57.50
2018-03-01T02:17:06.535Z,57.40
2018-03-01T02:18:06.312Z,57.50
2018-03-01T02:19:06.318Z,57.60
2018-03-01T02:20:05.791Z,57.70
2018-03-01T02:21:08.934Z,57.50
2018-03-01T02:22:09.977Z,57.60
2018-03-01T02:23:06.302Z,57.60
2018-03-01T02:24:06.267Z,57.70
2018-03-01T02:25:08.094Z,57.90
2018-03-01T02:26:09.338Z,57.80
2018-03-01T02:27:06.353Z,57.90
2018-03-01T02:28:08.254Z,57.80
2018-03-01T02:29:06.096Z,57.80
2018-03-01T02:30:06.240Z,57.90
2018-03-01T02:31:06.243Z,57.90
2018-03-01T02:32:05.939Z,57.90
2018-03-01T02:33:06.187Z,57.90
2018-03-01T02:34:08.947Z,58.10
2018-03-01T02:35:09.377Z,58.00
2018-03-01T02:36:06.073Z,58.00
2018-03-01T02:37:09.794Z,58.00
2018-03-01T02:38:10.797Z,58.00
2018-03-01T02:39:06.312Z,58.10
2018-03-01T02:40:06.186Z,58.20
2018-03-01T02:41:06.525Z,58.30
2018-03-01T02:42:09.742Z,58.20
2018-03-01T02:43:06.096Z,58.20
2018-03-01T02:44:06.483Z,58.30
2018-03-01T02:45:09.482Z,58.50
2018-03-01T02:46:06.225Z,58.40
2018-03-01T02:47:11.328Z,58.40
2018-03-01T02:48:06.107Z,58.40
2018-03-01T02:49:09.047Z,58.40
2018-03-01T02:50:10.716Z,58.40
2018-03-01T02:51:09.899Z,58.40
2018-03-01T02:52:05.928Z,58.40
2018-03-01T02:53:06.143Z,58.40
2018-03-01T02:54:06.358Z,58.50
2018-03-01T02:55:06.110Z,58.50
2018-03-01T02:56:06.053Z,58.50
2018-03-01T02:57:06.151Z,58.60
2018-03-01T02:58:06.323Z,58.50
2018-03-01T02:59:07.053Z,58.50
2018-03-01T03:00:08.308Z,58.60
2018-03-01T03:01:08.514Z,58.70
2018-03-01T03:02:06.134Z,58.70
2018-03-01T03:03:06.306Z,58.80
2018-03-01T03:04:05.824Z,58.80
2018-03-01T03:05:06.398Z,58.80
2018-03-01T03:06:06.223Z,58.80
2018-03-01T03:07:06.355Z,58.80
2018-03-01T03:08:06.421Z,58.90
2018-03-01T03:09:08.703Z,59.00
2018-03-01T03:10:06.344Z,58.90
2018-03-01T03:11:06.422Z,59.00
2018-03-01T03:12:06.165Z,59.10
2018-03-01T03:13:05.984Z,59.20
2018-03-01T03:14:05.828Z,59.20
2018-03-01T03:15:11.550Z,59.10
2018-03-01T03:16:06.027Z,59.10
2018-03-01T03:17:11.391Z,59.20
2018-03-01T03:18:06.161Z,59.20
2018-03-01T03:19:06.167Z,59.20
2018-03-01T03:20:08.540Z,58.90
2018-03-01T03:21:06.017Z,59.00
2018-03-01T03:22:06.609Z,58.90
2018-03-01T03:23:06.213Z,59.00
2018-03-01T03:24:06.445Z,58.90
2018-03-01T03:25:06.361Z,59.00
2018-03-01T03:26:06.749Z,59.00
2018-03-01T03:27:11.450Z,59.20
2018-03-01T03:28:10.731Z,59.30
2018-03-01T03:29:10.747Z,59.40
2018-03-01T03:30:06.351Z,59.40
2018-03-01T03:31:06.359Z,59.40
2018-03-01T03:32:06.248Z,59.50
2018-03-01T03:33:06.641Z,59.50
2018-03-01T03:34:06.196Z,59.50
2018-03-01T03:35:06.116Z,59.50
2018-03-01T03:36:06.287Z,59.50
2018-03-01T03:37:06.385Z,59.40
2018-03-01T03:38:06.353Z,59.50
2018-03-01T03:39:06.794Z,59.50
2018-03-01T03:40:06.338Z,59.50
2018-03-01T03:41:05.960Z,59.50
2018-03-01T03:42:06.533Z,59.50
2018-03-01T03:43:06.036Z,59.60
2018-03-01T03:44:09.050Z,59.70
2018-03-01T03:45:05.853Z,59.70
2018-03-01T03:46:06.252Z,59.70
2018-03-01T03:47:09.470Z,59.70
2018-03-01T03:48:06.251Z,59.80
2018-03-01T03:49:06.410Z,59.70
2018-03-01T03:50:06.358Z,59.80
2018-03-01T03:51:08.993Z,59.90
2018-03-01T03:52:06.614Z,60.00
2018-03-01T03:53:10.833Z,59.80
2018-03-01T03:54:06.235Z,59.80
2018-03-01T03:55:06.035Z,59.80
2018-03-01T03:56:06.315Z,59.80
2018-03-01T03:57:06.377Z,59.90
2018-03-01T03:58:11.413Z,60.00
2018-03-01T03:59:06.007Z,60.00
2018-03-01T04:00:11.239Z,60.20
2018-03-01T04:01:05.980Z,60.20
2018-03-01T04:02:06.289Z,60.10
2018-03-01T04:03:06.604Z,60.30
2018-03-01T04:04:07.380Z,60.20
2018-03-01T04:05:10.453Z,60.20
2018-03-01T04:06:07.298Z,60.20
2018-03-01T04:07:07.058Z,60.20
2018-03-01T04:08:06.468Z,60.10
2018-03-01T04:09:06.643Z,60.30
2018-03-01T04:10:05.976Z,60.20
2018-03-01T04:11:06.372Z,60.10
2018-03-01T04:12:07.381Z,60.20
2018-03-01T04:13:06.612Z,60.10
2018-03-01T04:14:05.892Z,60.00
2018-03-01T04:15:06.565Z,60.10
2018-03-01T04:16:06.132Z,60.00
2018-03-01T04:17:06.083Z,60.00
2018-03-01T04:18:06.251Z,60.10
2018-03-01T04:19:06.013Z,60.20
2018-03-01T04:20:06.098Z,60.20
2018-03-01T04:21:05.980Z,60.20
2018-03-01T04:22:06.511Z,60.60
2018-03-01T04:23:06.125Z,60.40
2018-03-01T04:24:06.366Z,60.50
2018-03-01T04:25:05.901Z,60.40
2018-03-01T04:26:08.519Z,60.40
2018-03-01T04:27:06.336Z,60.50
2018-03-01T04:28:10.406Z,60.40
2018-03-01T04:29:10.434Z,60.40
2018-03-01T04:30:08.127Z,60.50
2018-03-01T04:31:06.296Z,60.40
2018-03-01T04:32:08.459Z,60.40
2018-03-01T04:33:11.029Z,60.20
2018-03-01T04:34:06.052Z,60.20
2018-03-01T04:35:06.302Z,60.40
2018-03-01T04:36:06.396Z,60.40
2018-03-01T04:37:06.405Z,60.50
2018-03-01T04:38:06.529Z,60.40
2018-03-01T04:39:06.069Z,60.50
2018-03-01T04:40:06.661Z,60.50
2018-03-01T04:41:05.959Z,60.50
2018-03-01T04:42:06.161Z,60.50
2018-03-01T04:43:06.033Z,60.40
2018-03-01T04:44:06.299Z,60.50
2018-03-01T04:45:06.438Z,60.60
2018-03-01T04:46:11.505Z,60.50
2018-03-01T04:47:06.427Z,60.50
2018-03-01T04:48:06.211Z,60.40
2018-03-01T04:49:06.187Z,60.50
2018-03-01T04:50:06.314Z,60.50
2018-03-01T04:51:06.515Z,60.50
2018-03-01T04:52:06.233Z,60.50
2018-03-01T04:53:06.538Z,60.50
2018-03-01T04:54:05.939Z,60.40
2018-03-01T04:55:09.188Z,60.40
2018-03-01T04:56:05.982Z,60.50
2018-03-01T04:57:06.449Z,60.50
2018-03-01T04:58:06.475Z,60.50
2018-03-01T04:59:06.288Z,60.50
2018-03-01T05:00:13.228Z,60.50
2018-03-01T05:01:08.338Z,60.50
2018-03-01T05:02:06.026Z,60.50
2018-03-01T05:03:06.083Z,60.50
2018-03-01T05:04:06.115Z,60.50
2018-03-01T05:05:06.001Z,60.50
2018-03-01T05:06:11.424Z,60.60
2018-03-01T05:07:06.734Z,60.60
2018-03-01T05:08:08.181Z,60.60
2018-03-01T05:09:05.972Z,60.60
2018-03-01T05:10:06.364Z,60.50
2018-03-01T05:11:06.479Z,60.50
2018-03-01T05:12:06.531Z,60.60
2018-03-01T05:13:08.570Z,60.60
2018-03-01T05:14:11.198Z,60.50
2018-03-01T05:15:06.670Z,60.50
2018-03-01T05:16:06.206Z,60.60
2018-03-01T05:17:06.331Z,60.60
2018-03-01T05:18:06.309Z,60.50
2018-03-01T05:19:10.978Z,60.70
2018-03-01T05:20:07.997Z,60.70
2018-03-01T05:21:06.051Z,60.70
2018-03-01T05:22:10.505Z,60.70
2018-03-01T05:23:06.927Z,60.70
2018-03-01T05:24:06.058Z,60.80
2018-03-01T05:25:06.454Z,60.90
2018-03-01T05:26:06.130Z,60.90
2018-03-01T05:27:11.259Z,61.10
2018-03-01T05:28:06.529Z,61.10
2018-03-01T05:29:09.890Z,61.10
2018-03-01T05:30:06.755Z,61.10
2018-03-01T05:31:10.908Z,61.20
2018-03-01T05:32:06.563Z,61.30
2018-03-01T05:33:06.454Z,61.40
2018-03-01T05:34:05.983Z,61.30
2018-03-01T05:35:06.257Z,61.40
2018-03-01T05:36:06.169Z,61.40
2018-03-01T05:37:06.577Z,61.30
2018-03-01T05:38:09.871Z,61.60
2018-03-01T05:39:15.685Z,61.80
2018-03-01T05:40:09.312Z,61.90
2018-03-01T05:41:08.478Z,62.00
2018-03-01T05:42:06.328Z,62.00
2018-03-01T05:43:06.445Z,62.10
2018-03-01T05:44:11.148Z,62.10
2018-03-01T05:45:06.902Z,62.20
2018-03-01T05:46:11.142Z,62.60
2018-03-01T05:47:06.029Z,62.60
2018-03-01T05:48:10.896Z,62.60
2018-03-01T05:49:06.751Z,62.60
2018-03-01T05:50:06.496Z,62.60
2018-03-01T05:51:06.443Z,62.60
2018-03-01T05:52:06.517Z,62.80
2018-03-01T05:53:06.101Z,62.90
2018-03-01T05:54:06.496Z,62.70
2018-03-01T05:55:06.128Z,62.90
2018-03-01T05:56:06.269Z,63.00
2018-03-01T05:57:11.693Z,62.90
2018-03-01T05:58:06.355Z,63.00
2018-03-01T05:59:10.019Z,63.00
2018-03-01T06:00:06.001Z,62.90
2018-03-01T06:01:08.959Z,63.20
2018-03-01T06:02:08.573Z,63.30
2018-03-01T06:03:11.315Z,63.30
2018-03-01T06:04:10.915Z,63.40
2018-03-01T06:05:06.266Z,63.40
2018-03-01T06:06:10.010Z,63.30
2018-03-01T06:07:09.050Z,63.30
2018-03-01T06:08:06.100Z,63.30
2018-03-01T06:09:06.152Z,63.50
2018-03-01T06:10:06.457Z,63.50
2018-03-01T06:11:11.366Z,63.70
2018-03-01T06:12:05.650Z,63.70
2018-03-01T06:13:05.927Z,63.80
2018-03-01T06:14:06.559Z,63.70
2018-03-01T06:15:08.314Z,63.70
2018-03-01T06:16:06.071Z,63.60
2018-03-01T06:17:10.785Z,63.50
2018-03-01T06:18:06.429Z,63.50
2018-03-01T06:19:06.162Z,63.60
2018-03-01T06:20:06.485Z,63.40
2018-03-01T06:21:06.022Z,63.50
2018-03-01T06:22:06.152Z,63.40
2018-03-01T06:23:06.124Z,63.40
2018-03-01T06:24:10.966Z,63.40
2018-03-01T06:25:06.554Z,63.40
2018-03-01T06:26:10.727Z,63.60
2018-03-01T06:27:06.506Z,63.60
2018-03-01T06:28:10.518Z,63.60
2018-03-01T06:29:08.457Z,63.80
2018-03-01T06:30:06.439Z,63.80
2018-03-01T06:31:09.160Z,63.80
2018-03-01T06:32:10.850Z,63.90
2018-03-01T06:33:06.575Z,63.90
2018-03-01T06:34:06.579Z,63.90
2018-03-01T06:35:06.193Z,63.80
2018-03-01T06:36:08.946Z,63.80
2018-03-01T06:37:09.130Z,63.80
2018-03-01T06:38:06.220Z,63.80
2018-03-01T06:39:06.490Z,63.80
2018-03-01T06:40:06.116Z,63.90
2018-03-01T06:41:10.617Z,64.10
2018-03-01T06:42:06.356Z,64.10
2018-03-01T06:43:08.463Z,64.10
2018-03-01T06:44:06.248Z,64.00
2018-03-01T06:45:10.836Z,63.70
2018-03-01T06:46:06.513Z,63.70
2018-03-01T06:47:06.372Z,63.70
2018-03-01T06:48:11.547Z,63.30
2018-03-01T06:49:06.711Z,63.00
2018-03-01T06:50:06.618Z,62.70
2018-03-01T06:51:06.083Z,62.20
2018-03-01T06:52:11.261Z,61.50
2018-03-01T06:53:11.077Z,61.40
2018-03-01T06:54:10.684Z,61.10
2018-03-01T06:55:06.424Z,60.80
2018-03-01T06:56:06.068Z,60.40
2018-03-01T06:57:11.197Z,60.00
2018-03-01T06:58:06.118Z,59.80
2018-03-01T06:59:10.663Z,59.40
2018-03-01T07:00:08.660Z,59.00
2018-03-01T07:01:06.359Z,59.00
2018-03-01T07:02:08.046Z,58.40
2018-03-01T07:03:06.049Z,58.40
2018-03-01T07:04:05.995Z,58.00
2018-03-01T07:05:06.033Z,57.70
2018-03-01T07:06:06.545Z,57.60
2018-03-01T07:07:06.439Z,57.50
2018-03-01T07:08:08.460Z,56.60
2018-03-01T07:09:06.306Z,56.60
2018-03-01T07:10:06.282Z,56.70
2018-03-01T07:11:16.825Z,56.80
2018-03-01T07:12:11.545Z,56.70
2018-03-01T07:13:06.634Z,56.60
2018-03-01T07:14:06.827Z,56.50
2018-03-01T07:15:10.629Z,56.00
2018-03-01T07:16:06.454Z,55.90
2018-03-01T07:17:06.512Z,55.90
2018-03-01T07:18:10.690Z,55.70
2018-03-01T07:19:06.102Z,55.70
2018-03-01T07:20:06.619Z,55.30
2018-03-01T07:21:06.798Z,55.20
2018-03-01T07:22:08.439Z,54.90
2018-03-01T07:23:11.062Z,54.90
2018-03-01T07:24:06.388Z,54.90
2018-03-01T07:25:06.142Z,54.90
2018-03-01T07:26:06.132Z,54.60
2018-03-01T07:27:06.424Z,54.30
2018-03-01T07:28:06.582Z,54.40
2018-03-01T07:29:10.665Z,54.60
2018-03-01T07:30:09.805Z,54.60
2018-03-01T07:31:06.153Z,54.60
2018-03-01T07:32:06.520Z,54.50
2018-03-01T07:33:06.343Z,54.30
2018-03-01T07:34:10.941Z,54.30
2018-03-01T07:35:10.551Z,54.30
2018-03-01T07:36:08.404Z,53.90
2018-03-01T07:37:06.215Z,53.90
2018-03-01T07:38:06.128Z,53.50
2018-03-01T07:39:06.131Z,53.30
2018-03-01T07:40:06.623Z,53.20
2018-03-01T07:41:08.438Z,53.20
2018-03-01T07:42:06.408Z,53.30
2018-03-01T07:43:10.982Z,53.30
2018-03-01T07:44:08.128Z,53.40
2018-03-01T07:45:06.137Z,53.50
2018-03-01T07:46:06.491Z,53.40
2018-03-01T07:47:11.149Z,53.40
2018-03-01T07:48:06.275Z,53.40
2018-03-01T07:49:09.856Z,53.20
2018-03-01T07:50:05.998Z,53.20
2018-03-01T07:51:08.846Z,53.40
2018-03-01T07:52:06.563Z,53.40
2018-03-01T07:53:10.570Z,53.50
2018-03-01T07:54:06.047Z,53.70
2018-03-01T07:55:06.386Z,53.80
2018-03-01T07:56:06.144Z,53.40
2018-03-01T07:57:10.775Z,53.40
2018-03-01T07:58:14.914Z,53.00
2018-03-01T07:59:06.428Z,52.90
2018-03-01T08:00:06.194Z,52.90
2018-03-01T08:01:16.380Z,52.70
2018-03-01T08:02:06.304Z,52.70
2018-03-01T08:03:10.887Z,52.50
2018-03-01T08:04:06.436Z,52.50
2018-03-01T08:05:05.711Z,52.60
2018-03-01T08:06:06.426Z,52.50
2018-03-01T08:07:06.103Z,52.60
2018-03-01T08:08:06.383Z,52.60
2018-03-01T08:09:06.264Z,52.70
2018-03-01T08:10:05.741Z,52.60
2018-03-01T08:11:08.434Z,52.30
2018-03-01T08:12:06.455Z,52.30
2018-03-01T08:13:06.525Z,52.20
2018-03-01T08:14:09.086Z,52.20
2018-03-01T08:15:06.414Z,52.20
2018-03-01T08:16:06.208Z,52.10
2018-03-01T08:17:06.351Z,52.30
2018-03-01T08:18:06.115Z,52.20
2018-03-01T08:19:09.899Z,52.10
2018-03-01T08:20:09.080Z,51.80
2018-03-01T08:21:06.144Z,51.80
2018-03-01T08:22:06.485Z,51.70
2018-03-01T08:23:06.442Z,51.60
2018-03-01T08:24:06.153Z,51.50
2018-03-01T08:25:06.533Z,51.50
2018-03-01T08:26:06.153Z,51.40
2018-03-01T08:27:06.121Z,51.50
2018-03-01T08:28:10.139Z,51.70
2018-03-01T08:29:10.986Z,51.50
2018-03-01T08:30:08.953Z,51.70
2018-03-01T08:31:06.146Z,51.70
2018-03-01T08:32:06.443Z,51.50
2018-03-01T08:33:08.257Z,51.20
2018-03-01T08:34:06.237Z,51.20
2018-03-01T08:35:05.732Z,51.20
2018-03-01T08:36:06.458Z,51.10
2018-03-01T08:37:06.121Z,50.80
2018-03-01T08:38:10.655Z,50.90
2018-03-01T08:39:09.919Z,51.00
2018-03-01T08:40:10.634Z,50.80
2018-03-01T08:41:06.367Z,50.80
2018-03-01T08:42:06.219Z,50.70
2018-03-01T08:43:06.273Z,50.50
2018-03-01T08:44:06.530Z,50.40
2018-03-01T08:45:08.306Z,50.00
2018-03-01T08:46:06.264Z,50.00
2018-03-01T08:47:06.395Z,50.10
2018-03-01T08:48:06.896Z,50.20
2018-03-01T08:49:06.485Z,50.10
2018-03-01T08:50:06.036Z,49.80
2018-03-01T08:51:06.229Z,49.70
2018-03-01T08:52:06.554Z,49.80
2018-03-01T08:53:06.472Z,49.90
2018-03-01T08:54:06.613Z,49.90
2018-03-01T08:55:06.236Z,49.80
2018-03-01T08:56:06.267Z,49.40
2018-03-01T08:57:11.184Z,49.20
2018-03-01T08:58:06.039Z,49.20
2018-03-01T08:59:11.404Z,49.30
2018-03-01T09:00:10.961Z,49.30
2018-03-01T09:01:06.516Z,49.10
2018-03-01T09:02:05.824Z,49.00
2018-03-01T09:03:06.143Z,49.00
2018-03-01T09:04:05.781Z,48.90
2018-03-01T09:05:08.325Z,49.00
2018-03-01T09:06:06.229Z,49.00
2018-03-01T09:07:06.347Z,48.70
2018-03-01T09:08:09.894Z,48.50
2018-03-01T09:09:06.541Z,48.40
2018-03-01T09:10:06.602Z,48.50
2018-03-01T09:11:06.145Z,48.80
2018-03-01T09:12:06.101Z,48.50
2018-03-01T09:13:06.410Z,47.80
2018-03-01T09:14:08.501Z,47.40
2018-03-01T09:15:06.399Z,47.40
2018-03-01T09:16:06.316Z,47.20
2018-03-01T09:17:06.503Z,47.10
2018-03-01T09:18:06.076Z,47.00
2018-03-01T09:19:06.259Z,46.90
2018-03-01T09:20:06.444Z,46.50
2018-03-01T09:21:08.363Z,46.00
2018-03-01T09:22:06.205Z,46.00
2018-03-01T09:23:09.820Z,46.10
2018-03-01T09:24:06.136Z,46.10
2018-03-01T09:25:06.572Z,45.90
2018-03-01T09:26:06.363Z,45.70
2018-03-01T09:27:05.776Z,45.60
2018-03-01T09:28:09.404Z,45.40
2018-03-01T09:29:08.542Z,19.90
2018-03-01T09:30:06.390Z,45.50
2018-03-01T09:31:06.427Z,45.60
2018-03-01T09:32:06.484Z,45.50
2018-03-01T09:33:06.106Z,45.30
2018-03-01T09:34:06.202Z,45.50
2018-03-01T09:35:08.457Z,45.20
2018-03-01T09:36:11.114Z,45.10
2018-03-01T09:37:06.123Z,45.10
2018-03-01T09:38:06.213Z,45.30
2018-03-01T09:39:08.858Z,44.60
2018-03-01T09:40:06.677Z,44.60
2018-03-01T09:41:06.263Z,44.60
2018-03-01T09:42:06.432Z,44.70
2018-03-01T09:43:05.816Z,44.50
2018-03-01T09:44:06.480Z,44.40
2018-03-01T09:45:11.267Z,44.50
2018-03-01T09:46:08.640Z,44.00
2018-03-01T09:47:11.508Z,44.00
2018-03-01T09:48:06.216Z,43.90
2018-03-01T09:49:11.157Z,44.00
2018-03-01T09:50:06.175Z,44.00
2018-03-01T09:51:11.100Z,43.80
2018-03-01T09:52:05.842Z,43.80
2018-03-01T09:53:06.462Z,43.60
2018-03-01T09:54:06.101Z,43.40
2018-03-01T09:55:10.996Z,43.50
2018-03-01T09:56:06.383Z,43.50
2018-03-01T09:57:06.623Z,43.60
2018-03-01T09:58:06.568Z,43.60
2018-03-01T09:59:06.057Z,43.60
2018-03-01T10:00:06.553Z,43.60
2018-03-01T10:01:10.791Z,43.30
2018-03-01T10:02:11.379Z,43.20
2018-03-01T10:03:11.132Z,43.10
2018-03-01T10:04:06.648Z,43.10
2018-03-01T10:05:06.206Z,43.00
2018-03-01T10:06:10.116Z,43.20
2018-03-01T10:07:06.085Z,43.20
2018-03-01T10:08:06.493Z,43.40
2018-03-01T10:09:05.811Z,43.20
2018-03-01T10:10:06.275Z,42.70
2018-03-01T10:11:06.407Z,42.70
2018-03-01T10:12:10.729Z,42.70
2018-03-01T10:13:06.526Z,42.70
2018-03-01T10:14:08.472Z,42.50
2018-03-01T10:15:10.259Z,42.70
2018-03-01T10:16:08.614Z,42.30
2018-03-01T10:17:11.165Z,41.90
2018-03-01T10:18:06.293Z,41.90
2018-03-01T10:19:07.137Z,41.90
2018-03-01T10:20:08.561Z,41.30
2018-03-01T10:21:06.462Z,41.40
2018-03-01T10:22:08.570Z,41.80
2018-03-01T10:23:06.403Z,41.80
2018-03-01T10:24:06.585Z,41.60
2018-03-01T10:25:07.069Z,41.30
2018-03-01T10:26:06.290Z,41.30
2018-03-01T10:27:06.557Z,41.10
2018-03-01T10:28:06.417Z,41.10
2018-03-01T10:29:08.394Z,41.10
2018-03-01T10:30:06.372Z,41.00
2018-03-01T10:31:10.825Z,40.80
2018-03-01T10:32:06.566Z,40.80
2018-03-01T10:33:06.485Z,40.90
2018-03-01T10:34:06.535Z,40.50
2018-03-01T10:35:08.530Z,40.90
2018-03-01T10:36:07.301Z,40.90
2018-03-01T10:37:06.660Z,41.00
2018-03-01T10:38:06.207Z,40.90
2018-03-01T10:39:06.277Z,40.90
2018-03-01T10:40:06.255Z,40.60
2018-03-01T10:41:06.442Z,40.30
2018-03-01T10:42:06.544Z,40.10
2018-03-01T10:43:06.113Z,40.00
2018-03-01T10:44:06.306Z,39.80
2018-03-01T10:45:06.556Z,39.80
2018-03-01T10:46:06.252Z,39.80
2018-03-01T10:47:06.256Z,39.40
2018-03-01T10:48:06.645Z,39.50
2018-03-01T10:49:13.401Z,39.40
2018-03-01T10:50:08.551Z,39.30
2018-03-01T10:51:06.575Z,39.30
2018-03-01T10:52:06.281Z,38.90
2018-03-01T10:53:06.435Z,38.90
2018-03-01T10:54:05.889Z,39.10
2018-03-01T10:55:10.727Z,39.20
2018-03-01T10:56:08.582Z,39.20
2018-03-01T10:57:06.420Z,39.20
2018-03-01T10:58:06.219Z,39.20
2018-03-01T10:59:05.882Z,39.10
2018-03-01T11:00:06.310Z,39.10
2018-03-01T11:01:06.496Z,39.20
2018-03-01T11:02:06.404Z,39.50
2018-03-01T11:03:11.057Z,39.40
2018-03-01T11:04:06.624Z,39.40
2018-03-01T11:05:07.625Z,39.00
2018-03-01T11:06:06.416Z,38.80
2018-03-01T11:07:14.164Z,38.60
2018-03-01T11:08:10.846Z,38.70
2018-03-01T11:09:11.477Z,38.60
2018-03-01T11:10:10.784Z,38.70
2018-03-01T11:11:06.283Z,38.70
2018-03-01T11:12:06.675Z,38.70
2018-03-01T11:13:06.361Z,38.70
2018-03-01T11:14:06.139Z,38.70
2018-03-01T11:15:08.314Z,38.20
2018-03-01T11:16:06.421Z,38.20
2018-03-01T11:17:06.351Z,38.10
2018-03-01T11:18:06.531Z,38.00
2018-03-01T11:19:06.306Z,37.80
2018-03-01T11:20:06.568Z,37.70
2018-03-01T11:21:08.365Z,38.00
2018-03-01T11:22:08.660Z,38.00
2018-03-01T11:23:08.733Z,37.90
2018-03-01T11:24:06.161Z,37.90
2018-03-01T11:25:08.982Z,37.90
2018-03-01T11:26:05.866Z,37.90
2018-03-01T11:27:06.533Z,38.00
2018-03-01T11:28:05.953Z,37.90
2018-03-01T11:29:06.382Z,37.90
2018-03-01T11:30:06.287Z,37.80
2018-03-01T11:31:06.345Z,37.70
2018-03-01T11:32:06.284Z,37.70
2018-03-01T11:33:06.380Z,37.30
2018-03-01T11:34:06.523Z,37.00
2018-03-01T11:35:12.091Z,37.10
2018-03-01T11:36:06.027Z,37.20
2018-03-01T11:37:06.313Z,37.10
2018-03-01T11:38:06.626Z,37.00
2018-03-01T11:39:08.485Z,36.70
2018-03-01T11:40:08.273Z,36.70
2018-03-01T11:41:05.980Z,36.70
2018-03-01T11:42:06.295Z,36.60
2018-03-01T11:43:06.374Z,36.90
2018-03-01T11:44:06.364Z,37.20
2018-03-01T11:45:11.591Z,37.20
2018-03-01T11:46:06.298Z,37.00
2018-03-01T11:47:06.573Z,36.70
2018-03-01T11:48:06.006Z,36.60
2018-03-01T11:49:07.483Z,36.70
2018-03-01T11:50:06.545Z,36.90
2018-03-01T11:51:08.322Z,37.10
2018-03-01T11:52:06.441Z,37.10
2018-03-01T11:53:05.901Z,36.60
2018-03-01T11:54:06.628Z,36.30
2018-03-01T11:55:06.371Z,36.00
2018-03-01T11:56:06.621Z,35.90
2018-03-01T11:57:08.301Z,35.70
2018-03-01T11:58:06.292Z,35.70
2018-03-01T11:59:06.401Z,35.80
2018-03-01T12:00:06.205Z,36.10
2018-03-01T12:01:07.555Z,36.10
2018-03-01T12:02:06.323Z,35.90
2018-03-01T12:03:06.259Z,35.70
2018-03-01T12:04:10.897Z,35.80
2018-03-01T12:05:06.527Z,35.60
2018-03-01T12:06:08.301Z,35.50
2018-03-01T12:07:07.150Z,35.40
2018-03-01T12:08:06.776Z,35.40
2018-03-01T12:09:10.983Z,35.10
2018-03-01T12:10:09.322Z,34.50
2018-03-01T12:11:12.214Z,34.50
2018-03-01T12:12:06.399Z,34.30
2018-03-01T12:13:16.108Z,34.50
2018-03-01T12:14:10.565Z,34.50
2018-03-01T12:15:06.455Z,34.50
2018-03-01T12:16:10.971Z,34.60
2018-03-01T12:17:06.617Z,34.60
2018-03-01T12:18:10.894Z,34.00
2018-03-01T12:19:06.511Z,34.00
2018-03-01T12:20:05.937Z,33.90
2018-03-01T12:21:07.028Z,34.20
2018-03-01T12:22:08.184Z,33.90
2018-03-01T12:23:06.208Z,33.90
2018-03-01T12:24:12.230Z,34.00
2018-03-01T12:25:05.900Z,34.00
2018-03-01T12:26:06.457Z,34.30
2018-03-01T12:27:11.616Z,34.40
2018-03-01T12:28:06.558Z,34.20
2018-03-01T12:29:06.278Z,34.00
2018-03-01T12:30:06.460Z,34.00
2018-03-01T12:31:08.462Z,33.80
2018-03-01T12:32:06.665Z,33.80
2018-03-01T12:33:05.950Z,33.90
2018-03-01T12:34:26.131Z,33.50
2018-03-01T12:35:10.636Z,33.40
2018-03-01T12:36:05.987Z,33.50
2018-03-01T12:37:06.485Z,33.10
2018-03-01T12:38:06.231Z,32.80
2018-03-01T12:39:06.611Z,32.90
2018-03-01T12:40:11.014Z,33.40
2018-03-01T12:41:05.937Z,33.40
2018-03-01T12:42:06.267Z,33.50
2018-03-01T12:43:05.984Z,33.40
2018-03-01T12:44:09.992Z,33.60
2018-03-01T12:45:06.104Z,33.60
2018-03-01T12:46:07.761Z,33.50
2018-03-01T12:47:06.649Z,33.50
2018-03-01T12:48:09.219Z,33.50
2018-03-01T12:49:07.310Z,33.40
2018-03-01T12:50:06.678Z,33.20
2018-03-01T12:51:06.523Z,32.70
2018-03-01T12:52:06.523Z,32.30